sensor_id;sensor_type;location;lat;lon;timestamp;P1;durP1;ratioP1;P2;durP2;ratioP2
75916;SDS011;64595;50.148;14.334;2023-11-21T00:00:24;6.32;;;3.53;;
75916;SDS011;64595;50.148;14.334;2023-11-21T00:02:50;6.55;;;2.83;;
75916;SDS011;64595;50.148;14.334;2023-11-21T00:05:15;7.45;;;3.00;;
75916;SDS011;64595;50.148;14.334;2023-11-21T00:07:41;5.03;;;2.65;;
75916;SDS011;64595;50.148;14.334;2023-11-21T00:10:07;5.57;;;2.97;;
75916;SDS011;64595;50.148;14.334;2023-11-21T00:12:33;5.90;;;3.25;;
75916;SDS011;64595;50.148;14.334;2023-11-21T00:14:58;5.95;;;3.40;;
75916;SDS011;64595;50.148;14.334;2023-11-21T00:17:25;5.13;;;2.90;;
75916;SDS011;64595;50.148;14.334;2023-11-21T00:19:51;5.55;;;2.92;;
75916;SDS011;64595;50.148;14.334;2023-11-21T00:22:16;8.07;;;2.83;;
75916;SDS011;64595;50.148;14.334;2023-11-21T00:24:42;5.72;;;2.70;;
75916;SDS011;64595;50.148;14.334;2023-11-21T00:27:07;10.45;;;3.35;;
75916;SDS011;64595;50.148;14.334;2023-11-21T00:29:32;6.68;;;3.20;;
75916;SDS011;64595;50.148;14.334;2023-11-21T00:31:58;6.22;;;2.80;;
75916;SDS011;64595;50.148;14.334;2023-11-21T00:34:25;4.97;;;3.22;;
75916;SDS011;64595;50.148;14.334;2023-11-21T00:36:50;7.60;;;3.08;;
75916;SDS011;64595;50.148;14.334;2023-11-21T00:39:16;8.30;;;3.50;;
75916;SDS011;64595;50.148;14.334;2023-11-21T00:41:41;4.88;;;2.80;;
75916;SDS011;64595;50.148;14.334;2023-11-21T00:44:07;9.63;;;3.50;;
75916;SDS011;64595;50.148;14.334;2023-11-21T00:46:35;6.07;;;3.15;;
75916;SDS011;64595;50.148;14.334;2023-11-21T00:49:00;6.22;;;3.13;;
75916;SDS011;64595;50.148;14.334;2023-11-21T00:51:27;7.28;;;3.42;;
75916;SDS011;64595;50.148;14.334;2023-11-21T00:53:55;7.10;;;3.40;;
75916;SDS011;64595;50.148;14.334;2023-11-21T00:56:20;8.32;;;3.80;;
75916;SDS011;64595;50.148;14.334;2023-11-21T00:58:46;7.22;;;3.33;;
75916;SDS011;64595;50.148;14.334;2023-11-21T01:01:11;6.95;;;3.42;;
75916;SDS011;64595;50.148;14.334;2023-11-21T01:03:37;7.57;;;3.20;;
75916;SDS011;64595;50.148;14.334;2023-11-21T01:06:10;5.97;;;2.85;;
75916;SDS011;64595;50.148;14.334;2023-11-21T01:08:37;5.00;;;3.20;;
75916;SDS011;64595;50.148;14.334;2023-11-21T01:11:03;6.47;;;3.40;;
75916;SDS011;64595;50.148;14.334;2023-11-21T01:13:28;8.25;;;3.10;;
75916;SDS011;64595;50.148;14.334;2023-11-21T01:15:54;4.90;;;3.20;;
75916;SDS011;64595;50.148;14.334;2023-11-21T01:18:20;5.63;;;3.00;;
75916;SDS011;64595;50.148;14.334;2023-11-21T01:20:45;9.65;;;3.45;;
75916;SDS011;64595;50.148;14.334;2023-11-21T01:23:10;6.80;;;3.00;;
75916;SDS011;64595;50.148;14.334;2023-11-21T01:25:37;7.78;;;3.50;;
75916;SDS011;64595;50.148;14.334;2023-11-21T01:28:03;8.57;;;3.33;;
75916;SDS011;64595;50.148;14.334;2023-11-21T01:30:28;5.03;;;2.88;;
75916;SDS011;64595;50.148;14.334;2023-11-21T01:32:54;5.03;;;2.97;;
75916;SDS011;64595;50.148;14.334;2023-11-21T01:35:19;6.72;;;3.45;;
75916;SDS011;64595;50.148;14.334;2023-11-21T01:37:45;6.47;;;3.45;;
75916;SDS011;64595;50.148;14.334;2023-11-21T01:40:10;7.18;;;3.53;;
75916;SDS011;64595;50.148;14.334;2023-11-21T01:42:37;12.02;;;3.88;;
75916;SDS011;64595;50.148;14.334;2023-11-21T01:45:03;8.52;;;3.67;;
75916;SDS011;64595;50.148;14.334;2023-11-21T01:47:29;5.53;;;3.40;;
75916;SDS011;64595;50.148;14.334;2023-11-21T01:49:55;6.88;;;3.50;;
75916;SDS011;64595;50.148;14.334;2023-11-21T01:52:20;6.38;;;3.50;;
75916;SDS011;64595;50.148;14.334;2023-11-21T01:54:46;7.55;;;3.30;;
75916;SDS011;64595;50.148;14.334;2023-11-21T01:57:11;6.63;;;4.60;;
75916;SDS011;64595;50.148;14.334;2023-11-21T01:59:38;7.70;;;3.78;;
75916;SDS011;64595;50.148;14.334;2023-11-21T02:02:06;5.35;;;3.20;;
75916;SDS011;64595;50.148;14.334;2023-11-21T02:04:32;6.40;;;3.45;;
75916;SDS011;64595;50.148;14.334;2023-11-21T02:06:57;8.25;;;3.83;;
75916;SDS011;64595;50.148;14.334;2023-11-21T02:09:24;8.45;;;3.80;;
75916;SDS011;64595;50.148;14.334;2023-11-21T02:11:51;5.60;;;3.40;;
75916;SDS011;64595;50.148;14.334;2023-11-21T02:14:16;8.10;;;3.42;;
75916;SDS011;64595;50.148;14.334;2023-11-21T02:16:43;7.13;;;3.53;;
75916;SDS011;64595;50.148;14.334;2023-11-21T02:19:08;6.60;;;3.53;;
75916;SDS011;64595;50.148;14.334;2023-11-21T02:21:35;6.80;;;3.33;;
75916;SDS011;64595;50.148;14.334;2023-11-21T02:24:03;8.15;;;3.63;;
75916;SDS011;64595;50.148;14.334;2023-11-21T02:26:28;8.23;;;3.00;;
75916;SDS011;64595;50.148;14.334;2023-11-21T02:28:54;6.25;;;3.50;;
75916;SDS011;64595;50.148;14.334;2023-11-21T02:31:19;6.15;;;3.58;;
75916;SDS011;64595;50.148;14.334;2023-11-21T02:33:45;5.47;;;3.30;;
75916;SDS011;64595;50.148;14.334;2023-11-21T02:36:10;5.88;;;2.85;;
75916;SDS011;64595;50.148;14.334;2023-11-21T02:38:36;4.65;;;3.00;;
75916;SDS011;64595;50.148;14.334;2023-11-21T02:41:03;5.75;;;3.00;;
75916;SDS011;64595;50.148;14.334;2023-11-21T02:43:28;8.73;;;2.95;;
75916;SDS011;64595;50.148;14.334;2023-11-21T02:45:54;5.90;;;3.08;;
75916;SDS011;64595;50.148;14.334;2023-11-21T02:48:19;8.40;;;3.70;;
75916;SDS011;64595;50.148;14.334;2023-11-21T02:50:44;5.68;;;3.00;;
75916;SDS011;64595;50.148;14.334;2023-11-21T02:53:10;6.45;;;3.20;;
75916;SDS011;64595;50.148;14.334;2023-11-21T02:55:35;5.68;;;3.35;;
75916;SDS011;64595;50.148;14.334;2023-11-21T02:58:02;4.75;;;3.42;;
75916;SDS011;64595;50.148;14.334;2023-11-21T03:00:28;7.28;;;3.30;;
75916;SDS011;64595;50.148;14.334;2023-11-21T03:02:54;4.13;;;2.92;;
75916;SDS011;64595;50.148;14.334;2023-11-21T03:05:20;5.72;;;3.15;;
75916;SDS011;64595;50.148;14.334;2023-11-21T03:07:46;6.10;;;2.90;;
75916;SDS011;64595;50.148;14.334;2023-11-21T03:10:11;6.25;;;3.03;;
75916;SDS011;64595;50.148;14.334;2023-11-21T03:12:37;5.07;;;2.90;;
75916;SDS011;64595;50.148;14.334;2023-11-21T03:15:04;5.20;;;3.00;;
75916;SDS011;64595;50.148;14.334;2023-11-21T03:17:30;5.13;;;3.00;;
75916;SDS011;64595;50.148;14.334;2023-11-21T03:19:56;6.18;;;3.40;;
75916;SDS011;64595;50.148;14.334;2023-11-21T03:22:21;9.07;;;3.30;;
75916;SDS011;64595;50.148;14.334;2023-11-21T03:24:47;4.97;;;2.90;;
75916;SDS011;64595;50.148;14.334;2023-11-21T03:27:12;6.05;;;2.97;;
75916;SDS011;64595;50.148;14.334;2023-11-21T03:29:37;7.45;;;3.42;;
75916;SDS011;64595;50.148;14.334;2023-11-21T03:32:05;5.97;;;2.90;;
75916;SDS011;64595;50.148;14.334;2023-11-21T03:34:30;4.88;;;2.60;;
75916;SDS011;64595;50.148;14.334;2023-11-21T03:36:56;9.25;;;3.20;;
75916;SDS011;64595;50.148;14.334;2023-11-21T03:39:22;6.85;;;3.45;;
75916;SDS011;64595;50.148;14.334;2023-11-21T03:41:47;3.92;;;2.80;;
75916;SDS011;64595;50.148;14.334;2023-11-21T03:44:13;6.40;;;3.00;;
75916;SDS011;64595;50.148;14.334;2023-11-21T03:46:38;8.15;;;3.33;;
75916;SDS011;64595;50.148;14.334;2023-11-21T03:49:05;5.60;;;2.78;;
75916;SDS011;64595;50.148;14.334;2023-11-21T03:51:31;5.53;;;2.72;;
75916;SDS011;64595;50.148;14.334;2023-11-21T03:53:56;4.70;;;2.60;;
75916;SDS011;64595;50.148;14.334;2023-11-21T03:56:22;5.72;;;2.65;;
75916;SDS011;64595;50.148;14.334;2023-11-21T03:58:47;5.20;;;2.50;;
75916;SDS011;64595;50.148;14.334;2023-11-21T04:01:18;4.82;;;2.70;;
75916;SDS011;64595;50.148;14.334;2023-11-21T04:03:44;6.15;;;3.00;;
75916;SDS011;64595;50.148;14.334;2023-11-21T04:06:11;4.95;;;2.72;;
75916;SDS011;64595;50.148;14.334;2023-11-21T04:08:36;4.50;;;2.80;;
75916;SDS011;64595;50.148;14.334;2023-11-21T04:11:02;4.40;;;2.80;;
75916;SDS011;64595;50.148;14.334;2023-11-21T04:13:27;6.75;;;3.03;;
75916;SDS011;64595;50.148;14.334;2023-11-21T04:15:53;5.25;;;3.00;;
75916;SDS011;64595;50.148;14.334;2023-11-21T04:18:18;6.35;;;3.22;;
75916;SDS011;64595;50.148;14.334;2023-11-21T04:20:44;4.85;;;2.83;;
75916;SDS011;64595;50.148;14.334;2023-11-21T04:23:10;4.60;;;3.13;;
75916;SDS011;64595;50.148;14.334;2023-11-21T04:25:36;9.18;;;3.30;;
75916;SDS011;64595;50.148;14.334;2023-11-21T04:28:01;8.07;;;2.65;;
75916;SDS011;64595;50.148;14.334;2023-11-21T04:30:27;4.43;;;2.88;;
75916;SDS011;64595;50.148;14.334;2023-11-21T04:32:52;4.25;;;2.55;;
75916;SDS011;64595;50.148;14.334;2023-11-21T04:35:18;5.63;;;2.58;;
75916;SDS011;64595;50.148;14.334;2023-11-21T04:37:43;5.40;;;2.72;;
75916;SDS011;64595;50.148;14.334;2023-11-21T04:40:10;6.18;;;2.88;;
75916;SDS011;64595;50.148;14.334;2023-11-21T04:42:36;4.25;;;2.60;;
75916;SDS011;64595;50.148;14.334;2023-11-21T04:45:02;4.32;;;2.70;;
75916;SDS011;64595;50.148;14.334;2023-11-21T04:47:28;7.22;;;2.70;;
75916;SDS011;64595;50.148;14.334;2023-11-21T04:49:54;4.72;;;2.78;;
75916;SDS011;64595;50.148;14.334;2023-11-21T04:52:19;5.05;;;3.03;;
75916;SDS011;64595;50.148;14.334;2023-11-21T04:54:45;4.10;;;2.78;;
75916;SDS011;64595;50.148;14.334;2023-11-21T04:57:11;5.10;;;2.60;;
75916;SDS011;64595;50.148;14.334;2023-11-21T04:59:37;5.10;;;2.97;;
75916;SDS011;64595;50.148;14.334;2023-11-21T05:02:02;7.28;;;2.88;;
75916;SDS011;64595;50.148;14.334;2023-11-21T05:04:28;7.65;;;3.35;;
75916;SDS011;64595;50.148;14.334;2023-11-21T05:06:53;6.70;;;3.08;;
75916;SDS011;64595;50.148;14.334;2023-11-21T05:09:19;5.47;;;3.30;;
75916;SDS011;64595;50.148;14.334;2023-11-21T05:11:44;7.10;;;3.80;;
75916;SDS011;64595;50.148;14.334;2023-11-21T05:14:11;6.20;;;3.10;;
75916;SDS011;64595;50.148;14.334;2023-11-21T05:16:39;5.03;;;3.30;;
75916;SDS011;64595;50.148;14.334;2023-11-21T05:19:04;5.82;;;3.28;;
75916;SDS011;64595;50.148;14.334;2023-11-21T05:21:30;8.00;;;3.90;;
75916;SDS011;64595;50.148;14.334;2023-11-21T05:23:55;7.97;;;3.83;;
75916;SDS011;64595;50.148;14.334;2023-11-21T05:26:21;5.40;;;3.53;;
75916;SDS011;64595;50.148;14.334;2023-11-21T05:28:46;6.18;;;2.75;;
75916;SDS011;64595;50.148;14.334;2023-11-21T05:31:13;5.90;;;3.30;;
75916;SDS011;64595;50.148;14.334;2023-11-21T05:33:39;5.55;;;3.15;;
75916;SDS011;64595;50.148;14.334;2023-11-21T05:36:04;7.03;;;3.95;;
75916;SDS011;64595;50.148;14.334;2023-11-21T05:38:30;8.82;;;4.10;;
75916;SDS011;64595;50.148;14.334;2023-11-21T05:40:56;8.73;;;3.40;;
75916;SDS011;64595;50.148;14.334;2023-11-21T05:43:21;7.68;;;3.60;;
75916;SDS011;64595;50.148;14.334;2023-11-21T05:45:47;9.43;;;5.15;;
75916;SDS011;64595;50.148;14.334;2023-11-21T05:48:13;5.93;;;3.70;;
75916;SDS011;64595;50.148;14.334;2023-11-21T05:50:39;4.80;;;3.58;;
75916;SDS011;64595;50.148;14.334;2023-11-21T05:53:04;5.68;;;3.53;;
75916;SDS011;64595;50.148;14.334;2023-11-21T05:55:30;7.05;;;3.28;;
75916;SDS011;64595;50.148;14.334;2023-11-21T05:57:55;3.97;;;2.90;;
75916;SDS011;64595;50.148;14.334;2023-11-21T06:00:21;8.20;;;3.67;;
75916;SDS011;64595;50.148;14.334;2023-11-21T06:02:46;5.03;;;3.10;;
75916;SDS011;64595;50.148;14.334;2023-11-21T06:05:13;6.00;;;3.30;;
75916;SDS011;64595;50.148;14.334;2023-11-21T06:07:39;7.30;;;3.38;;
75916;SDS011;64595;50.148;14.334;2023-11-21T06:10:05;6.00;;;3.85;;
75916;SDS011;64595;50.148;14.334;2023-11-21T06:12:32;10.48;;;4.45;;
75916;SDS011;64595;50.148;14.334;2023-11-21T06:14:57;10.25;;;4.00;;
75916;SDS011;64595;50.148;14.334;2023-11-21T06:17:23;6.47;;;3.60;;
75916;SDS011;64595;50.148;14.334;2023-11-21T06:19:48;6.50;;;3.90;;
75916;SDS011;64595;50.148;14.334;2023-11-21T06:22:15;8.63;;;3.88;;
75916;SDS011;64595;50.148;14.334;2023-11-21T06:24:40;9.75;;;3.75;;
75916;SDS011;64595;50.148;14.334;2023-11-21T06:27:06;7.10;;;3.92;;
75916;SDS011;64595;50.148;14.334;2023-11-21T06:29:31;13.60;;;4.88;;
75916;SDS011;64595;50.148;14.334;2023-11-21T06:31:57;8.02;;;4.28;;
75916;SDS011;64595;50.148;14.334;2023-11-21T06:34:22;7.25;;;4.22;;
75916;SDS011;64595;50.148;14.334;2023-11-21T06:36:48;9.23;;;5.18;;
75916;SDS011;64595;50.148;14.334;2023-11-21T06:39:15;9.35;;;4.85;;
75916;SDS011;64595;50.148;14.334;2023-11-21T06:41:40;13.10;;;4.20;;
75916;SDS011;64595;50.148;14.334;2023-11-21T06:44:06;7.55;;;4.68;;
75916;SDS011;64595;50.148;14.334;2023-11-21T06:46:31;7.57;;;3.90;;
75916;SDS011;64595;50.148;14.334;2023-11-21T06:48:57;7.50;;;3.90;;
75916;SDS011;64595;50.148;14.334;2023-11-21T06:51:22;6.13;;;3.80;;
75916;SDS011;64595;50.148;14.334;2023-11-21T06:53:48;9.52;;;4.18;;
75916;SDS011;64595;50.148;14.334;2023-11-21T06:56:18;9.15;;;4.22;;
75916;SDS011;64595;50.148;14.334;2023-11-21T06:58:43;7.65;;;4.25;;
75916;SDS011;64595;50.148;14.334;2023-11-21T07:01:10;8.38;;;3.80;;
75916;SDS011;64595;50.148;14.334;2023-11-21T07:03:35;8.27;;;3.55;;
75916;SDS011;64595;50.148;14.334;2023-11-21T07:06:00;6.68;;;3.45;;
75916;SDS011;64595;50.148;14.334;2023-11-21T07:08:26;5.15;;;3.00;;
75916;SDS011;64595;50.148;14.334;2023-11-21T07:10:51;5.00;;;3.30;;
75916;SDS011;64595;50.148;14.334;2023-11-21T07:13:18;5.43;;;3.38;;
75916;SDS011;64595;50.148;14.334;2023-11-21T07:15:44;4.28;;;3.20;;
75916;SDS011;64595;50.148;14.334;2023-11-21T07:18:09;7.57;;;3.63;;
75916;SDS011;64595;50.148;14.334;2023-11-21T07:20:35;8.00;;;3.83;;
75916;SDS011;64595;50.148;14.334;2023-11-21T07:23:00;6.60;;;4.65;;
75916;SDS011;64595;50.148;14.334;2023-11-21T07:25:26;7.35;;;4.40;;
75916;SDS011;64595;50.148;14.334;2023-11-21T07:27:51;9.90;;;4.95;;
75916;SDS011;64595;50.148;14.334;2023-11-21T07:30:18;10.15;;;4.45;;
75916;SDS011;64595;50.148;14.334;2023-11-21T07:32:43;7.93;;;4.50;;
75916;SDS011;64595;50.148;14.334;2023-11-21T07:35:09;10.05;;;4.75;;
75916;SDS011;64595;50.148;14.334;2023-11-21T07:37:34;8.48;;;3.58;;
75916;SDS011;64595;50.148;14.334;2023-11-21T07:40:00;4.57;;;3.40;;
75916;SDS011;64595;50.148;14.334;2023-11-21T07:42:25;5.22;;;3.65;;
75916;SDS011;64595;50.148;14.334;2023-11-21T07:44:51;6.13;;;3.20;;
75916;SDS011;64595;50.148;14.334;2023-11-21T07:47:18;10.15;;;3.83;;
75916;SDS011;64595;50.148;14.334;2023-11-21T07:49:43;7.00;;;3.10;;
75916;SDS011;64595;50.148;14.334;2023-11-21T07:52:09;6.22;;;3.17;;
75916;SDS011;64595;50.148;14.334;2023-11-21T07:54:34;10.23;;;3.28;;
75916;SDS011;64595;50.148;14.334;2023-11-21T07:56:59;6.22;;;3.13;;
75916;SDS011;64595;50.148;14.334;2023-11-21T07:59:25;6.75;;;3.35;;
75916;SDS011;64595;50.148;14.334;2023-11-21T08:01:50;9.98;;;4.13;;
75916;SDS011;64595;50.148;14.334;2023-11-21T08:04:17;4.78;;;3.35;;
75916;SDS011;64595;50.148;14.334;2023-11-21T08:06:43;7.13;;;3.47;;
75916;SDS011;64595;50.148;14.334;2023-11-21T08:09:08;4.50;;;3.15;;
75916;SDS011;64595;50.148;14.334;2023-11-21T08:11:33;5.15;;;2.70;;
75916;SDS011;64595;50.148;14.334;2023-11-21T08:13:59;6.88;;;3.10;;
75916;SDS011;64595;50.148;14.334;2023-11-21T08:16:24;3.92;;;2.80;;
75916;SDS011;64595;50.148;14.334;2023-11-21T08:18:50;8.93;;;3.72;;
75916;SDS011;64595;50.148;14.334;2023-11-21T08:21:17;5.05;;;2.80;;
75916;SDS011;64595;50.148;14.334;2023-11-21T08:23:42;6.50;;;3.05;;
75916;SDS011;64595;50.148;14.334;2023-11-21T08:26:08;8.38;;;3.50;;
75916;SDS011;64595;50.148;14.334;2023-11-21T08:28:33;5.82;;;3.35;;
75916;SDS011;64595;50.148;14.334;2023-11-21T08:30:59;5.93;;;3.22;;
75916;SDS011;64595;50.148;14.334;2023-11-21T08:33:25;5.30;;;3.50;;
75916;SDS011;64595;50.148;14.334;2023-11-21T08:35:51;5.13;;;2.67;;
75916;SDS011;64595;50.148;14.334;2023-11-21T08:38:17;6.10;;;3.53;;
75916;SDS011;64595;50.148;14.334;2023-11-21T08:40:43;4.95;;;3.47;;
75916;SDS011;64595;50.148;14.334;2023-11-21T08:43:08;7.03;;;3.38;;
75916;SDS011;64595;50.148;14.334;2023-11-21T08:45:34;4.60;;;3.05;;
75916;SDS011;64595;50.148;14.334;2023-11-21T08:47:59;4.82;;;3.15;;
75916;SDS011;64595;50.148;14.334;2023-11-21T08:50:25;5.85;;;3.70;;
75916;SDS011;64595;50.148;14.334;2023-11-21T08:52:50;6.07;;;3.60;;
75916;SDS011;64595;50.148;14.334;2023-11-21T08:55:17;6.93;;;3.78;;
75916;SDS011;64595;50.148;14.334;2023-11-21T08:57:43;5.70;;;3.30;;
75916;SDS011;64595;50.148;14.334;2023-11-21T09:00:09;7.88;;;3.45;;
75916;SDS011;64595;50.148;14.334;2023-11-21T09:02:35;7.60;;;3.95;;
75916;SDS011;64595;50.148;14.334;2023-11-21T09:05:01;5.63;;;2.85;;
75916;SDS011;64595;50.148;14.334;2023-11-21T09:07:26;16.90;;;4.10;;
75916;SDS011;64595;50.148;14.334;2023-11-21T09:09:52;7.10;;;3.30;;
75916;SDS011;64595;50.148;14.334;2023-11-21T09:12:19;6.15;;;3.53;;
75916;SDS011;64595;50.148;14.334;2023-11-21T09:14:44;8.80;;;3.15;;
75916;SDS011;64595;50.148;14.334;2023-11-21T09:17:10;6.95;;;3.22;;
75916;SDS011;64595;50.148;14.334;2023-11-21T09:19:35;7.68;;;4.00;;
75916;SDS011;64595;50.148;14.334;2023-11-21T09:22:01;6.07;;;3.13;;
75916;SDS011;64595;50.148;14.334;2023-11-21T09:24:26;5.88;;;2.78;;
75916;SDS011;64595;50.148;14.334;2023-11-21T09:26:51;5.93;;;2.70;;
75916;SDS011;64595;50.148;14.334;2023-11-21T09:29:26;5.68;;;2.85;;
75916;SDS011;64595;50.148;14.334;2023-11-21T09:31:51;4.57;;;2.90;;
75916;SDS011;64595;50.148;14.334;2023-11-21T09:34:17;5.68;;;3.40;;
75916;SDS011;64595;50.148;14.334;2023-11-21T09:36:44;10.40;;;3.45;;
75916;SDS011;64595;50.148;14.334;2023-11-21T09:39:10;11.88;;;3.60;;
75916;SDS011;64595;50.148;14.334;2023-11-21T09:41:37;7.93;;;3.25;;
75916;SDS011;64595;50.148;14.334;2023-11-21T09:44:08;26.15;;;4.88;;
75916;SDS011;64595;50.148;14.334;2023-11-21T09:46:35;7.82;;;3.60;;
75916;SDS011;64595;50.148;14.334;2023-11-21T09:49:01;5.35;;;3.13;;
75916;SDS011;64595;50.148;14.334;2023-11-21T09:51:27;7.47;;;4.22;;
75916;SDS011;64595;50.148;14.334;2023-11-21T09:53:55;9.55;;;4.10;;
75916;SDS011;64595;50.148;14.334;2023-11-21T09:56:22;5.13;;;2.92;;
75916;SDS011;64595;50.148;14.334;2023-11-21T09:58:50;7.95;;;4.65;;
75916;SDS011;64595;50.148;14.334;2023-11-21T10:01:17;8.90;;;3.85;;
75916;SDS011;64595;50.148;14.334;2023-11-21T10:03:45;6.63;;;3.05;;
75916;SDS011;64595;50.148;14.334;2023-11-21T10:06:10;4.72;;;2.67;;
75916;SDS011;64595;50.148;14.334;2023-11-21T10:08:37;7.30;;;2.53;;
75916;SDS011;64595;50.148;14.334;2023-11-21T10:11:03;8.63;;;3.17;;
75916;SDS011;64595;50.148;14.334;2023-11-21T10:13:30;8.23;;;3.22;;
75916;SDS011;64595;50.148;14.334;2023-11-21T10:15:56;5.82;;;3.55;;
75916;SDS011;64595;50.148;14.334;2023-11-21T10:18:22;9.90;;;3.80;;
75916;SDS011;64595;50.148;14.334;2023-11-21T10:20:49;9.88;;;5.15;;
75916;SDS011;64595;50.148;14.334;2023-11-21T10:23:14;7.88;;;3.33;;
75916;SDS011;64595;50.148;14.334;2023-11-21T10:25:40;5.22;;;3.00;;
75916;SDS011;64595;50.148;14.334;2023-11-21T10:28:05;4.60;;;2.50;;
75916;SDS011;64595;50.148;14.334;2023-11-21T10:30:32;4.97;;;3.35;;
75916;SDS011;64595;50.148;14.334;2023-11-21T10:33:01;6.35;;;3.58;;
75916;SDS011;64595;50.148;14.334;2023-11-21T10:35:38;6.68;;;3.80;;
75916;SDS011;64595;50.148;14.334;2023-11-21T10:38:05;10.70;;;4.50;;
75916;SDS011;64595;50.148;14.334;2023-11-21T10:40:31;6.90;;;3.20;;
75916;SDS011;64595;50.148;14.334;2023-11-21T10:42:57;8.15;;;4.20;;
75916;SDS011;64595;50.148;14.334;2023-11-21T10:45:31;9.82;;;4.85;;
75916;SDS011;64595;50.148;14.334;2023-11-21T10:47:56;6.38;;;3.70;;
75916;SDS011;64595;50.148;14.334;2023-11-21T10:50:22;5.68;;;3.55;;
75916;SDS011;64595;50.148;14.334;2023-11-21T10:52:48;7.05;;;3.00;;
75916;SDS011;64595;50.148;14.334;2023-11-21T10:55:18;5.43;;;3.50;;
75916;SDS011;64595;50.148;14.334;2023-11-21T10:57:45;8.50;;;3.35;;
75916;SDS011;64595;50.148;14.334;2023-11-21T11:00:13;4.40;;;2.78;;
75916;SDS011;64595;50.148;14.334;2023-11-21T11:02:40;5.15;;;2.70;;
75916;SDS011;64595;50.148;14.334;2023-11-21T11:05:07;10.27;;;3.72;;
75916;SDS011;64595;50.148;14.334;2023-11-21T11:07:34;7.32;;;3.60;;
75916;SDS011;64595;50.148;14.334;2023-11-21T11:10:01;9.25;;;3.25;;
75916;SDS011;64595;50.148;14.334;2023-11-21T11:12:27;8.45;;;3.25;;
75916;SDS011;64595;50.148;14.334;2023-11-21T11:14:53;5.20;;;2.75;;
75916;SDS011;64595;50.148;14.334;2023-11-21T11:17:19;5.88;;;2.80;;
75916;SDS011;64595;50.148;14.334;2023-11-21T11:19:44;6.55;;;3.15;;
75916;SDS011;64595;50.148;14.334;2023-11-21T11:22:12;5.53;;;3.17;;
75916;SDS011;64595;50.148;14.334;2023-11-21T11:24:57;10.43;;;3.55;;
75916;SDS011;64595;50.148;14.334;2023-11-21T11:27:34;6.10;;;3.03;;
75916;SDS011;64595;50.148;14.334;2023-11-21T11:30:07;5.15;;;3.30;;
75916;SDS011;64595;50.148;14.334;2023-11-21T11:32:40;5.55;;;4.00;;
75916;SDS011;64595;50.148;14.334;2023-11-21T11:35:17;6.45;;;3.50;;
75916;SDS011;64595;50.148;14.334;2023-11-21T11:37:46;7.82;;;3.20;;
75916;SDS011;64595;50.148;14.334;2023-11-21T11:40:12;9.05;;;3.10;;
75916;SDS011;64595;50.148;14.334;2023-11-21T11:42:39;4.97;;;2.72;;
75916;SDS011;64595;50.148;14.334;2023-11-21T11:45:17;6.65;;;3.25;;
75916;SDS011;64595;50.148;14.334;2023-11-21T11:47:56;5.32;;;3.42;;
75916;SDS011;64595;50.148;14.334;2023-11-21T11:50:21;5.88;;;3.17;;
75916;SDS011;64595;50.148;14.334;2023-11-21T11:52:47;4.78;;;3.72;;
75916;SDS011;64595;50.148;14.334;2023-11-21T11:55:14;7.07;;;3.70;;
75916;SDS011;64595;50.148;14.334;2023-11-21T11:57:42;6.43;;;3.85;;
75916;SDS011;64595;50.148;14.334;2023-11-21T12:00:08;7.30;;;3.72;;
75916;SDS011;64595;50.148;14.334;2023-11-21T12:02:36;5.85;;;3.72;;
75916;SDS011;64595;50.148;14.334;2023-11-21T12:05:06;9.10;;;4.20;;
75916;SDS011;64595;50.148;14.334;2023-11-21T12:07:39;5.57;;;3.80;;
75916;SDS011;64595;50.148;14.334;2023-11-21T12:10:11;4.95;;;4.13;;
75916;SDS011;64595;50.148;14.334;2023-11-21T12:12:42;8.40;;;4.25;;
75916;SDS011;64595;50.148;14.334;2023-11-21T12:15:08;6.70;;;4.13;;
75916;SDS011;64595;50.148;14.334;2023-11-21T12:17:34;7.38;;;4.80;;
75916;SDS011;64595;50.148;14.334;2023-11-21T12:20:01;10.77;;;5.07;;
75916;SDS011;64595;50.148;14.334;2023-11-21T12:22:28;10.55;;;4.28;;
75916;SDS011;64595;50.148;14.334;2023-11-21T12:24:54;8.18;;;4.68;;
75916;SDS011;64595;50.148;14.334;2023-11-21T12:27:20;7.15;;;4.90;;
75916;SDS011;64595;50.148;14.334;2023-11-21T12:29:47;9.60;;;5.50;;
75916;SDS011;64595;50.148;14.334;2023-11-21T12:32:13;7.97;;;4.70;;
75916;SDS011;64595;50.148;14.334;2023-11-21T12:34:39;10.18;;;5.60;;
75916;SDS011;64595;50.148;14.334;2023-11-21T12:37:04;7.88;;;4.80;;
75916;SDS011;64595;50.148;14.334;2023-11-21T12:39:30;7.20;;;4.78;;
75916;SDS011;64595;50.148;14.334;2023-11-21T12:41:55;9.98;;;5.00;;
75916;SDS011;64595;50.148;14.334;2023-11-21T12:44:21;8.07;;;4.50;;
75916;SDS011;64595;50.148;14.334;2023-11-21T12:46:48;14.13;;;6.03;;
75916;SDS011;64595;50.148;14.334;2023-11-21T12:49:13;10.20;;;5.57;;
75916;SDS011;64595;50.148;14.334;2023-11-21T12:51:39;10.15;;;4.55;;
75916;SDS011;64595;50.148;14.334;2023-11-21T12:54:05;8.13;;;4.60;;
75916;SDS011;64595;50.148;14.334;2023-11-21T12:56:31;6.93;;;4.68;;
75916;SDS011;64595;50.148;14.334;2023-11-21T12:58:56;10.85;;;5.22;;
75916;SDS011;64595;50.148;14.334;2023-11-21T13:01:25;9.40;;;6.13;;
75916;SDS011;64595;50.148;14.334;2023-11-21T13:03:52;12.02;;;5.78;;
75916;SDS011;64595;50.148;14.334;2023-11-21T13:06:18;9.13;;;5.93;;
75916;SDS011;64595;50.148;14.334;2023-11-21T13:08:44;11.30;;;6.00;;
75916;SDS011;64595;50.148;14.334;2023-11-21T13:11:10;11.00;;;5.63;;
75916;SDS011;64595;50.148;14.334;2023-11-21T13:13:36;9.60;;;5.35;;
75916;SDS011;64595;50.148;14.334;2023-11-21T13:16:02;15.27;;;5.30;;
75916;SDS011;64595;50.148;14.334;2023-11-21T13:18:28;10.80;;;5.82;;
75916;SDS011;64595;50.148;14.334;2023-11-21T13:20:55;10.68;;;6.60;;
75916;SDS011;64595;50.148;14.334;2023-11-21T13:23:22;10.80;;;6.18;;
75916;SDS011;64595;50.148;14.334;2023-11-21T13:25:47;11.50;;;5.88;;
75916;SDS011;64595;50.148;14.334;2023-11-21T13:28:13;12.05;;;5.60;;
75916;SDS011;64595;50.148;14.334;2023-11-21T13:30:38;16.08;;;8.15;;
75916;SDS011;64595;50.148;14.334;2023-11-21T13:33:04;14.48;;;7.88;;
75916;SDS011;64595;50.148;14.334;2023-11-21T13:35:30;8.45;;;6.13;;
75916;SDS011;64595;50.148;14.334;2023-11-21T13:37:57;13.98;;;7.40;;
75916;SDS011;64595;50.148;14.334;2023-11-21T13:40:28;11.32;;;6.80;;
75916;SDS011;64595;50.148;14.334;2023-11-21T13:42:54;12.70;;;7.50;;
75916;SDS011;64595;50.148;14.334;2023-11-21T13:45:20;10.77;;;6.18;;
75916;SDS011;64595;50.148;14.334;2023-11-21T13:47:46;11.40;;;6.50;;
75916;SDS011;64595;50.148;14.334;2023-11-21T13:50:12;11.23;;;7.00;;
75916;SDS011;64595;50.148;14.334;2023-11-21T13:52:37;12.40;;;7.70;;
75916;SDS011;64595;50.148;14.334;2023-11-21T13:55:04;16.00;;;7.70;;
75916;SDS011;64595;50.148;14.334;2023-11-21T13:57:30;10.30;;;6.07;;
75916;SDS011;64595;50.148;14.334;2023-11-21T13:59:56;11.68;;;7.70;;
75916;SDS011;64595;50.148;14.334;2023-11-21T14:02:21;11.50;;;6.88;;
75916;SDS011;64595;50.148;14.334;2023-11-21T14:04:47;10.38;;;6.68;;
75916;SDS011;64595;50.148;14.334;2023-11-21T14:07:12;11.25;;;5.47;;
75916;SDS011;64595;50.148;14.334;2023-11-21T14:09:37;12.50;;;8.25;;
75916;SDS011;64595;50.148;14.334;2023-11-21T14:12:05;10.85;;;6.55;;
75916;SDS011;64595;50.148;14.334;2023-11-21T14:14:30;14.30;;;7.53;;
75916;SDS011;64595;50.148;14.334;2023-11-21T14:16:56;12.77;;;7.72;;
75916;SDS011;64595;50.148;14.334;2023-11-21T14:19:22;13.63;;;6.97;;
75916;SDS011;64595;50.148;14.334;2023-11-21T14:21:47;10.93;;;6.72;;
75916;SDS011;64595;50.148;14.334;2023-11-21T14:24:13;9.75;;;5.82;;
75916;SDS011;64595;50.148;14.334;2023-11-21T14:26:40;8.50;;;5.90;;